createdAt,value
2019-04-11T00:00:58.001Z,13.30
2019-04-11T00:03:27.154Z,11.73
2019-04-11T00:05:55.610Z,12.17
2019-04-11T00:08:24.081Z,13.13
2019-04-11T00:10:53.495Z,12.10
2019-04-11T00:13:25.646Z,12.23
2019-04-11T00:15:52.969Z,12.00
2019-04-11T00:18:21.422Z,15.70
2019-04-11T00:20:50.611Z,11.77
2019-04-11T00:23:19.225Z,12.20
2019-04-11T00:25:47.643Z,11.87
2019-04-11T00:28:16.049Z,12.13
2019-04-11T00:30:45.105Z,12.13
2019-04-11T00:33:13.987Z,14.10
2019-04-11T00:35:42.413Z,13.50
2019-04-11T00:38:11.757Z,15.50
2019-04-11T00:40:40.251Z,13.53
2019-04-11T00:43:09.477Z,12.80
2019-04-11T00:45:38.114Z,12.67
2019-04-11T00:48:06.593Z,13.87
2019-04-11T00:53:12.372Z,13.87
2019-04-11T00:55:41.791Z,14.03
2019-04-11T00:58:10.310Z,13.60
2019-04-11T01:00:39.741Z,15.43
2019-04-11T01:03:09.597Z,12.93
2019-04-11T01:05:39.342Z,12.50
2019-04-11T01:08:08.324Z,14.67
2019-04-11T01:10:36.753Z,14.73
2019-04-11T01:13:05.168Z,16.40
2019-04-11T01:15:33.622Z,15.63
2019-04-11T01:18:02.038Z,14.70
2019-04-11T01:20:31.333Z,14.90
2019-04-11T01:22:59.938Z,12.40
2019-04-11T01:25:28.485Z,14.97
2019-04-11T01:27:56.989Z,16.00
2019-04-11T01:30:29.082Z,14.73
2019-04-11T01:32:59.000Z,12.67
2019-04-11T01:35:27.486Z,19.10
2019-04-11T01:37:55.966Z,12.90
2019-04-11T01:40:25.483Z,14.07
2019-04-11T01:42:53.970Z,11.53
2019-04-11T01:45:23.918Z,14.33
2019-04-11T01:47:57.401Z,15.73
2019-04-11T01:50:27.566Z,16.27
2019-04-11T01:52:56.290Z,13.67
2019-04-11T01:55:26.017Z,14.40
2019-04-11T01:57:54.602Z,13.27
2019-04-11T02:00:42.670Z,13.00
2019-04-11T02:03:12.939Z,14.27
2019-04-11T02:05:41.398Z,19.47
2019-04-11T02:08:11.196Z,14.07
2019-04-11T02:10:39.737Z,12.67
2019-04-11T02:13:08.162Z,13.70
2019-04-11T02:15:36.726Z,14.43
2019-04-11T02:18:05.460Z,13.50
2019-04-11T02:20:33.945Z,15.40
2019-04-11T02:23:04.637Z,12.30
2019-04-11T02:25:50.627Z,12.67
2019-04-11T02:28:20.280Z,14.40
2019-04-11T02:30:54.159Z,13.33
2019-04-11T02:33:24.782Z,13.60
2019-04-11T02:35:54.358Z,15.00
2019-04-11T02:38:24.319Z,13.77
2019-04-11T02:40:54.868Z,15.23
2019-04-11T02:43:25.231Z,17.87
2019-04-11T02:46:09.047Z,16.40
2019-04-11T02:48:24.581Z,15.37
2019-04-11T02:50:54.257Z,15.07
2019-04-11T02:53:24.504Z,14.03
2019-04-11T02:55:54.192Z,14.60
2019-04-11T02:58:24.934Z,15.47
2019-04-11T03:00:55.373Z,14.30
2019-04-11T03:03:23.477Z,12.90
2019-04-11T03:05:53.327Z,12.67
2019-04-11T03:08:22.745Z,14.53
2019-04-11T03:10:53.604Z,13.47
2019-04-11T03:13:23.281Z,16.43
2019-04-11T03:16:07.383Z,13.63
2019-04-11T03:18:40.278Z,15.40
2019-04-11T03:20:56.639Z,15.03
2019-04-11T03:23:23.563Z,13.23
2019-04-11T03:25:54.342Z,13.97
2019-04-11T03:28:27.641Z,15.30
2019-04-11T03:31:22.340Z,17.13
2019-04-11T03:34:18.152Z,14.73
2019-04-11T03:38:46.556Z,16.10
2019-04-11T03:41:10.258Z,14.07
2019-04-11T03:43:36.574Z,16.70
2019-04-11T03:48:47.172Z,14.63
2019-04-11T03:51:08.631Z,16.07
2019-04-11T03:53:37.318Z,16.33
2019-04-11T03:56:07.607Z,14.00
2019-04-11T03:58:37.172Z,13.80
2019-04-11T04:01:08.512Z,16.07
2019-04-11T04:03:37.394Z,16.63
2019-04-11T04:06:07.277Z,16.50
2019-04-11T04:08:38.563Z,14.43
2019-04-11T04:11:09.192Z,14.77
2019-04-11T04:13:39.954Z,15.10
2019-04-11T04:16:27.444Z,15.03
2019-04-11T04:18:54.247Z,16.73
2019-04-11T04:21:35.139Z,19.00
2019-04-11T04:24:06.241Z,16.70
2019-04-11T04:26:35.585Z,16.93
2019-04-11T04:29:04.520Z,15.63
2019-04-11T04:31:33.004Z,16.23
2019-04-11T04:34:02.005Z,15.43
2019-04-11T04:36:32.839Z,17.60
2019-04-11T04:39:02.093Z,15.40
2019-04-11T04:41:39.258Z,14.47
2019-04-11T04:44:03.994Z,17.27
2019-04-11T04:46:47.041Z,19.03
2019-04-11T04:49:04.653Z,14.80
2019-04-11T04:51:33.272Z,17.33
2019-04-11T04:54:04.002Z,18.07
2019-04-11T04:56:34.798Z,17.90
2019-04-11T04:59:04.251Z,17.97
2019-04-11T05:01:32.928Z,16.60
2019-04-11T05:04:02.210Z,13.77
2019-04-11T05:06:32.202Z,15.73
2019-04-11T05:09:00.828Z,16.10
2019-04-11T05:11:30.534Z,16.87
2019-04-11T05:14:00.733Z,15.13
2019-04-11T05:16:29.871Z,17.43
2019-04-11T05:18:59.454Z,18.00
2019-04-11T05:21:27.926Z,14.37
2019-04-11T05:23:56.688Z,14.60
2019-04-11T05:26:25.663Z,15.40
2019-04-11T05:28:55.229Z,16.30
2019-04-11T05:31:24.714Z,16.23
2019-04-11T05:33:53.890Z,15.70
2019-04-11T05:36:22.709Z,16.17
2019-04-11T05:38:51.289Z,17.57
2019-04-11T05:41:21.406Z,17.53
2019-04-11T05:43:51.447Z,15.07
2019-04-11T05:46:31.053Z,17.07
2019-04-11T05:49:02.269Z,16.57
2019-04-11T05:51:36.955Z,15.97
2019-04-11T05:54:06.146Z,20.77
2019-04-11T05:56:33.941Z,15.70
2019-04-11T05:59:03.982Z,16.03
2019-04-11T06:01:42.867Z,15.77
2019-04-11T06:04:15.363Z,15.20
2019-04-11T06:07:01.625Z,16.27
2019-04-11T06:09:34.811Z,16.97
2019-04-11T06:12:15.237Z,18.43
2019-04-11T06:15:00.084Z,17.73
2019-04-11T06:17:28.512Z,16.83
2019-04-11T06:20:11.575Z,17.40
2019-04-11T06:22:42.811Z,17.60
2019-04-11T06:25:30.900Z,16.20
2019-04-11T06:28:04.097Z,15.93
2019-04-11T06:30:42.989Z,16.30
2019-04-11T06:33:16.459Z,15.43
2019-04-11T06:38:32.701Z,16.17
2019-04-11T06:41:02.976Z,17.83
2019-04-11T06:43:40.390Z,15.60
2019-04-11T06:46:13.254Z,17.23
2019-04-11T06:48:56.110Z,18.53
2019-04-11T06:51:28.859Z,15.97
2019-04-11T06:54:14.994Z,16.10
2019-04-11T06:56:45.496Z,15.70
2019-04-11T06:59:16.410Z,18.07
2019-04-11T07:01:47.486Z,17.37
2019-04-11T07:04:23.203Z,18.73
2019-04-11T07:06:53.727Z,15.80
2019-04-11T07:09:30.826Z,20.07
2019-04-11T07:12:01.384Z,16.67
2019-04-11T07:14:37.579Z,17.80
2019-04-11T07:17:23.698Z,21.70
2019-04-11T07:20:10.807Z,19.70
2019-04-11T07:22:57.536Z,20.83
2019-04-11T07:25:43.046Z,16.23
2019-04-11T07:28:18.801Z,20.37
2019-04-11T07:31:04.819Z,17.70
2019-04-11T07:33:44.967Z,16.87
2019-04-11T07:36:31.661Z,17.10
2019-04-11T07:39:07.955Z,19.57
2019-04-11T07:41:38.961Z,19.13
2019-04-11T07:44:09.810Z,18.73
2019-04-11T07:46:51.629Z,18.87
2019-04-11T07:49:30.718Z,17.93
2019-04-11T07:52:01.047Z,18.63
2019-04-11T07:54:30.315Z,17.70
2019-04-11T07:57:12.987Z,21.20
2019-04-11T07:59:46.720Z,18.00
2019-04-11T08:02:20.505Z,17.10
2019-04-11T08:05:00.326Z,18.57
2019-04-11T08:07:42.710Z,17.70
2019-04-11T08:10:16.022Z,19.60
2019-04-11T08:12:46.057Z,18.37
2019-04-11T08:15:33.490Z,16.77
2019-04-11T08:18:04.037Z,18.47
2019-04-11T08:20:50.366Z,19.17
2019-04-11T08:23:21.372Z,18.00
2019-04-11T08:26:07.883Z,17.57
2019-04-11T08:28:37.334Z,18.27
2019-04-11T08:31:16.155Z,18.77
2019-04-11T08:33:44.706Z,19.23
2019-04-11T08:36:15.782Z,20.33
2019-04-11T08:38:44.759Z,20.27
2019-04-11T08:41:15.576Z,21.10
2019-04-11T08:43:44.067Z,20.87
2019-04-11T08:46:16.933Z,19.90
2019-04-11T08:48:53.078Z,18.07
2019-04-11T08:51:23.328Z,22.43
2019-04-11T08:54:09.510Z,19.00
2019-04-11T08:56:39.942Z,20.87
2019-04-11T08:59:30.945Z,19.00
2019-04-11T09:02:00.395Z,19.70
2019-04-11T09:04:46.835Z,20.53
2019-04-11T09:07:19.634Z,17.80
2019-04-11T09:09:49.740Z,19.00
2019-04-11T09:12:18.490Z,18.17
2019-04-11T09:14:57.665Z,19.60
2019-04-11T09:17:30.570Z,19.77
2019-04-11T09:20:16.583Z,17.97
2019-04-11T09:22:47.117Z,19.10
2019-04-11T09:25:23.333Z,19.07
2019-04-11T09:28:09.148Z,22.63
2019-04-11T09:30:54.895Z,19.63
2019-04-11T09:33:41.485Z,19.65
2019-04-11T09:36:28.965Z,19.02
2019-04-11T09:39:02.904Z,19.62
2019-04-11T09:41:47.667Z,19.62
2019-04-11T09:44:20.658Z,22.58
2019-04-11T09:47:07.544Z,19.85
2019-04-11T09:49:40.450Z,19.60
2019-04-11T09:52:10.522Z,21.35
2019-04-11T09:54:52.695Z,18.98
2019-04-11T09:57:25.350Z,19.60
2019-04-11T09:59:56.068Z,21.12
2019-04-11T10:02:33.257Z,20.57
2019-04-11T10:05:03.438Z,21.05
2019-04-11T10:07:50.310Z,21.75
2019-04-11T10:10:29.378Z,23.52
2019-04-11T10:13:05.213Z,21.17
2019-04-11T10:15:35.594Z,18.42
2019-04-11T10:18:26.132Z,19.75
2019-04-11T10:20:53.013Z,22.65
2019-04-11T10:23:23.121Z,21.45
2019-04-11T10:25:53.719Z,19.95
2019-04-11T10:28:39.775Z,19.90
2019-04-11T10:31:10.270Z,20.32
2019-04-11T10:33:43.336Z,19.90
2019-04-11T10:36:23.158Z,21.37
2019-04-11T10:39:11.120Z,22.58
2019-04-11T10:41:42.058Z,26.77
2019-04-11T10:44:12.217Z,21.12
2019-04-11T10:46:57.787Z,21.20
2019-04-11T10:49:36.627Z,20.17
2019-04-11T10:52:24.874Z,21.17
2019-04-11T10:55:03.703Z,23.55
2019-04-11T10:57:34.078Z,20.62
2019-04-11T11:00:05.068Z,22.02
2019-04-11T11:02:47.462Z,22.73
2019-04-11T11:05:19.127Z,22.07
2019-04-11T11:07:48.898Z,22.93
2019-04-11T11:10:21.901Z,23.92
2019-04-11T11:12:54.574Z,22.30
2019-04-11T11:15:25.337Z,23.70
2019-04-11T11:18:38.175Z,23.00
2019-04-11T11:20:50.161Z,22.87
2019-04-11T11:23:32.979Z,22.42
2019-04-11T11:26:12.653Z,23.55
2019-04-11T11:28:43.145Z,21.90
2019-04-11T11:31:22.368Z,21.55
2019-04-11T11:33:51.651Z,23.05
2019-04-11T11:36:38.103Z,28.00
2019-04-11T11:39:24.745Z,25.75
2019-04-11T11:42:12.287Z,26.35
2019-04-11T11:44:55.267Z,22.75
2019-04-11T11:47:42.099Z,25.00
2019-04-11T11:50:25.083Z,22.60
2019-04-11T11:53:13.252Z,22.62
2019-04-11T11:55:43.329Z,23.22
2019-04-11T11:58:29.937Z,22.27
2019-04-11T12:01:03.590Z,24.92
2019-04-11T12:03:48.752Z,24.45
2019-04-11T12:06:22.218Z,26.55
2019-04-11T12:09:07.109Z,24.92
2019-04-11T12:11:37.947Z,22.20
2019-04-11T12:14:24.318Z,25.55
2019-04-11T12:17:06.801Z,25.55
2019-04-11T12:20:04.841Z,21.30
2019-04-11T12:22:26.991Z,22.65
2019-04-11T12:24:57.060Z,23.25
2019-04-11T12:27:27.133Z,22.42
2019-04-11T12:30:02.700Z,22.25
2019-04-11T12:32:49.879Z,22.48
2019-04-11T12:35:27.074Z,24.18
2019-04-11T12:37:57.913Z,23.73
2019-04-11T12:40:37.216Z,24.05
2019-04-11T12:43:07.271Z,22.32
2019-04-11T12:45:55.290Z,26.37
2019-04-11T12:48:25.592Z,23.05
2019-04-11T12:51:01.414Z,23.42
2019-04-11T12:53:29.838Z,21.65
2019-04-11T12:56:02.756Z,21.48
2019-04-11T12:58:38.855Z,22.02
2019-04-11T13:01:26.791Z,24.27
2019-04-11T13:04:12.795Z,23.70
2019-04-11T13:06:42.855Z,23.50
2019-04-11T13:09:30.978Z,22.17
2019-04-11T13:12:06.666Z,21.35
2019-04-11T13:14:36.861Z,25.65
2019-04-11T13:17:09.578Z,24.80
2019-04-11T13:20:04.589Z,22.10
2019-04-11T13:22:28.040Z,22.52
2019-04-11T13:25:12.941Z,22.48
2019-04-11T13:27:43.010Z,21.57
2019-04-11T13:30:29.138Z,23.57
2019-04-11T13:32:58.034Z,24.20
2019-04-11T13:35:28.165Z,23.98
2019-04-11T13:38:17.292Z,21.30
2019-04-11T13:40:48.456Z,22.00
2019-04-11T13:43:36.145Z,23.40
2019-04-11T13:46:06.353Z,22.93
2019-04-11T13:48:47.966Z,23.42
2019-04-11T13:51:18.339Z,26.55
2019-04-11T13:53:50.970Z,23.75
2019-04-11T13:56:21.042Z,25.10
2019-04-11T13:59:09.582Z,22.60
2019-04-11T14:01:39.678Z,23.45
2019-04-11T14:04:09.739Z,24.90
2019-04-11T14:06:38.186Z,23.38
2019-04-11T14:09:09.584Z,23.67
2019-04-11T14:11:39.793Z,25.10
2019-04-11T14:14:15.814Z,27.50
2019-04-11T14:17:03.866Z,22.13
2019-04-11T14:19:50.267Z,23.38
2019-04-11T14:22:21.753Z,23.40
2019-04-11T14:25:03.946Z,23.30
2019-04-11T14:27:32.641Z,23.75
2019-04-11T14:30:05.251Z,23.22
2019-04-11T14:32:35.335Z,24.20
2019-04-11T14:35:14.210Z,24.07
2019-04-11T14:37:44.592Z,22.20
2019-04-11T14:40:18.752Z,21.42
2019-04-11T14:42:54.325Z,21.52
2019-04-11T14:45:42.131Z,24.43
2019-04-11T14:48:27.075Z,21.73
2019-04-11T14:51:02.715Z,22.87
2019-04-11T14:53:41.698Z,21.87
2019-04-11T14:56:14.492Z,21.80
2019-04-11T14:59:00.394Z,23.10
2019-04-11T15:01:30.194Z,21.73
2019-04-11T15:04:00.278Z,20.37
2019-04-11T15:06:31.459Z,21.12
2019-04-11T15:09:10.942Z,20.60
2019-04-11T15:11:49.619Z,20.97
2019-04-11T15:14:35.633Z,20.95
2019-04-11T15:17:08.613Z,19.90
2019-04-11T15:19:37.045Z,21.17
2019-04-11T15:22:07.118Z,20.50
2019-04-11T15:24:37.625Z,19.52
2019-04-11T15:27:23.822Z,19.70
2019-04-11T15:29:53.015Z,18.77
2019-04-11T15:32:35.290Z,19.67
2019-04-11T15:35:04.079Z,18.87
2019-04-11T15:37:45.908Z,20.20
2019-04-11T15:40:15.894Z,23.18
2019-04-11T15:42:51.840Z,20.27
2019-04-11T15:45:33.902Z,20.65
2019-04-11T15:48:12.940Z,22.05
2019-04-11T15:51:06.602Z,21.27
2019-04-11T15:53:34.775Z,19.98
2019-04-11T15:56:21.265Z,22.48
2019-04-11T15:58:54.298Z,22.77
2019-04-11T16:01:42.268Z,20.12
2019-04-11T16:04:15.225Z,20.48
2019-04-11T16:06:45.282Z,20.08
2019-04-11T16:09:14.570Z,19.30
2019-04-11T16:11:44.794Z,21.73
2019-04-11T16:14:13.282Z,19.62
2019-04-11T16:16:55.375Z,25.02
2019-04-11T16:19:43.281Z,19.15
2019-04-11T16:22:19.333Z,20.08
2019-04-11T16:24:51.165Z,20.88
2019-04-11T16:27:21.334Z,18.75
2019-04-11T16:29:51.574Z,19.42
2019-04-11T16:32:21.901Z,20.37
2019-04-11T16:35:08.060Z,20.65
2019-04-11T16:37:36.535Z,20.60
2019-04-11T16:40:08.126Z,20.05
2019-04-11T16:42:38.245Z,19.75
2019-04-11T16:45:25.052Z,19.02
2019-04-11T16:48:02.371Z,20.80
2019-04-11T16:50:30.783Z,20.20
2019-04-11T16:52:59.189Z,18.62
2019-04-11T16:55:27.785Z,18.47
2019-04-11T16:57:56.374Z,18.00
2019-04-11T17:00:24.790Z,18.65
2019-04-11T17:02:55.043Z,19.35
2019-04-11T17:05:24.077Z,19.73
2019-04-11T17:07:56.150Z,21.20
2019-04-11T17:10:43.062Z,17.60
2019-04-11T17:13:11.482Z,17.42
2019-04-11T17:15:39.898Z,18.97
2019-04-11T17:18:08.388Z,17.50
2019-04-11T17:20:39.571Z,17.67
2019-04-11T17:23:06.938Z,18.07
2019-04-11T17:25:35.538Z,17.73
2019-04-11T17:28:03.962Z,17.43
2019-04-11T17:30:32.390Z,17.42
2019-04-11T17:33:00.861Z,18.00
2019-04-11T17:35:31.577Z,21.60
2019-04-11T17:38:01.112Z,20.73
2019-04-11T17:40:29.739Z,17.17
2019-04-11T17:42:58.162Z,15.13
2019-04-11T17:45:26.581Z,17.53
2019-04-11T17:47:57.282Z,18.83
2019-04-11T17:50:25.364Z,16.37
2019-04-11T17:52:54.731Z,19.50
2019-04-11T17:55:24.489Z,20.07
2019-04-11T17:57:54.882Z,18.17
2019-04-11T18:00:29.599Z,17.07
2019-04-11T18:02:54.998Z,17.00
2019-04-11T18:05:23.420Z,17.13
2019-04-11T18:07:51.844Z,17.17
2019-04-11T18:10:20.326Z,18.07
2019-04-11T18:12:48.746Z,18.17
2019-04-11T18:15:17.227Z,19.13
2019-04-11T18:17:45.822Z,16.47
2019-04-11T18:20:14.522Z,18.10
2019-04-11T18:22:43.779Z,18.47
2019-04-11T18:25:13.610Z,19.33
2019-04-11T18:27:42.042Z,17.83
2019-04-11T18:30:12.078Z,17.40
2019-04-11T18:32:40.838Z,16.10
2019-04-11T18:35:09.694Z,18.47
2019-04-11T18:37:38.351Z,17.43
2019-04-11T18:40:10.285Z,17.70
2019-04-11T18:42:37.878Z,17.50
2019-04-11T18:45:08.230Z,16.03
2019-04-11T18:47:37.361Z,17.37
2019-04-11T18:50:07.799Z,17.50
2019-04-11T18:52:36.281Z,16.10
2019-04-11T18:55:06.786Z,16.40
2019-04-11T18:57:35.394Z,17.43
2019-04-11T19:00:07.966Z,17.43
2019-04-11T19:02:35.340Z,16.27
2019-04-11T19:05:05.109Z,19.73
2019-04-11T19:07:33.588Z,17.20
2019-04-11T19:10:02.241Z,16.70
2019-04-11T19:12:30.670Z,16.83
2019-04-11T19:14:59.068Z,16.33
2019-04-11T19:17:30.173Z,16.77
2019-04-11T19:19:57.641Z,15.63
2019-04-11T19:22:37.088Z,16.53
2019-04-11T19:24:56.609Z,16.13
2019-04-11T19:27:25.033Z,15.60
2019-04-11T19:29:55.600Z,14.53
2019-04-11T19:32:23.719Z,19.60
2019-04-11T19:34:52.151Z,17.17
2019-04-11T19:37:20.567Z,17.33
2019-04-11T19:39:49.161Z,15.20
2019-04-11T19:42:19.608Z,16.27
2019-04-11T19:44:49.653Z,16.40
2019-04-11T19:47:21.403Z,18.83
2019-04-11T19:49:48.237Z,20.20
2019-04-11T19:52:16.662Z,16.03
2019-04-11T19:54:45.177Z,15.50
2019-04-11T19:57:13.600Z,15.50
2019-04-11T19:59:42.022Z,15.73
2019-04-11T20:02:10.469Z,17.33
2019-04-11T20:04:38.913Z,16.00
2019-04-11T20:07:07.329Z,17.20
2019-04-11T20:09:36.124Z,15.13
2019-04-11T20:12:04.623Z,15.33
2019-04-11T20:14:34.922Z,17.13
2019-04-11T20:17:03.205Z,16.33
2019-04-11T20:19:31.622Z,16.33
2019-04-11T20:22:00.053Z,16.03
2019-04-11T20:24:28.698Z,16.97
2019-04-11T20:26:57.128Z,15.43
2019-04-11T20:29:25.543Z,17.43
2019-04-11T20:31:54.445Z,16.00
2019-04-11T20:34:27.759Z,17.37
2019-04-11T20:36:53.012Z,16.70
2019-04-11T20:39:21.792Z,16.27
2019-04-11T20:41:53.194Z,13.97
2019-04-11T20:44:20.343Z,14.97
2019-04-11T20:46:49.182Z,13.77
2019-04-11T20:49:17.599Z,13.37
2019-04-11T20:51:46.010Z,13.13
2019-04-11T20:54:14.667Z,15.47
2019-04-11T20:56:43.090Z,12.90
2019-04-11T20:59:11.494Z,15.67
2019-04-11T21:01:39.947Z,14.57
2019-04-11T21:04:08.363Z,12.47
2019-04-11T21:06:36.774Z,14.37
2019-04-11T21:09:08.935Z,12.33
2019-04-11T21:11:37.361Z,11.43
2019-04-11T21:14:05.778Z,14.90
2019-04-11T21:16:34.215Z,11.40
2019-04-11T21:19:02.703Z,11.97
2019-04-11T21:21:31.174Z,12.20
2019-04-11T21:24:00.459Z,9.77
2019-04-11T21:26:29.611Z,12.47
2019-04-11T21:28:58.971Z,10.87
2019-04-11T21:31:30.875Z,9.13
2019-04-11T21:33:58.170Z,9.80
2019-04-11T21:36:26.990Z,9.63
2019-04-11T21:38:55.546Z,8.43
2019-04-11T21:41:23.997Z,10.60
2019-04-11T21:43:52.410Z,8.27
2019-04-11T21:46:21.152Z,11.63
2019-04-11T21:48:49.664Z,10.17
2019-04-11T21:51:18.074Z,7.03
2019-04-11T21:53:46.707Z,9.37
2019-04-11T21:56:15.907Z,8.60
2019-04-11T21:58:45.253Z,8.27
2019-04-11T22:01:15.923Z,9.97
2019-04-11T22:03:45.374Z,7.03
2019-04-11T22:06:13.799Z,7.40
2019-04-11T22:08:42.278Z,11.27
2019-04-11T22:11:10.781Z,8.43
2019-04-11T22:13:40.344Z,7.03
2019-04-11T22:16:13.463Z,7.53
2019-04-11T22:18:39.903Z,6.50
2019-04-11T22:21:08.325Z,7.33
2019-04-11T22:23:48.132Z,7.33
2019-04-11T22:26:07.022Z,8.07
2019-04-11T22:28:35.455Z,6.40
2019-04-11T22:31:03.879Z,6.60
2019-04-11T22:33:42.757Z,8.20
2019-04-11T22:36:11.265Z,6.20
2019-04-11T22:38:39.674Z,8.53
2019-04-11T22:41:08.105Z,6.40
2019-04-11T22:43:38.126Z,7.40
2019-04-11T22:46:08.061Z,8.90
2019-04-11T22:48:39.007Z,8.40
2019-04-11T22:51:08.876Z,6.53
2019-04-11T22:53:37.570Z,7.93
2019-04-11T22:56:05.991Z,6.87
2019-04-11T22:58:34.391Z,6.13
2019-04-11T23:01:03.014Z,6.33
2019-04-11T23:03:35.814Z,7.67
2019-04-11T23:06:04.226Z,6.53
2019-04-11T23:08:32.774Z,9.70
2019-04-11T23:11:01.190Z,5.73
2019-04-11T23:13:47.488Z,8.47
2019-04-11T23:16:15.909Z,5.97
2019-04-11T23:18:44.903Z,7.20
2019-04-11T23:21:14.381Z,6.47
2019-04-11T23:23:43.376Z,6.50
2019-04-11T23:26:11.778Z,6.20
2019-04-11T23:28:40.239Z,6.00
2019-04-11T23:31:08.642Z,6.43
2019-04-11T23:33:37.050Z,6.53
2019-04-11T23:36:05.493Z,5.93
2019-04-11T23:38:33.914Z,6.13
2019-04-11T23:41:02.333Z,6.30
2019-04-11T23:43:30.818Z,7.13
2019-04-11T23:45:59.718Z,7.23
2019-04-11T23:52:11.259Z,6.17
2019-04-11T23:54:42.598Z,6.57
2019-04-11T23:57:11.010Z,6.40
2019-04-11T23:59:39.466Z,6.23
